createdAt,value
2018-09-27T00:02:20.744Z,18.13
2018-09-27T00:07:23.793Z,18.11
2018-09-27T00:12:26.822Z,18.13
2018-09-27T00:17:29.857Z,18.14
2018-09-27T00:22:32.918Z,18.08
2018-09-27T00:27:35.943Z,18.01
2018-09-27T00:32:38.990Z,18.02
2018-09-27T00:37:42.066Z,18.03
2018-09-27T00:42:45.094Z,17.98
2018-09-27T00:47:48.143Z,17.93
2018-09-27T00:52:51.219Z,17.94
2018-09-27T00:57:54.279Z,17.88
2018-09-27T01:02:57.310Z,17.87
2018-09-27T01:08:00.374Z,17.81
2018-09-27T01:13:03.422Z,17.77
2018-09-27T01:18:06.460Z,17.66
2018-09-27T01:23:09.465Z,17.54
2018-09-27T01:28:12.474Z,17.50
2018-09-27T01:33:15.527Z,17.38
2018-09-27T01:38:18.547Z,17.22
2018-09-27T01:43:21.615Z,16.92
2018-09-27T01:48:24.653Z,16.91
2018-09-27T01:53:27.686Z,16.81
2018-09-27T01:58:30.702Z,16.75
2018-09-27T02:03:33.728Z,16.80
2018-09-27T02:08:36.815Z,16.90
2018-09-27T02:13:39.884Z,16.98
2018-09-27T02:18:42.935Z,17.10
2018-09-27T02:23:45.962Z,17.19
2018-09-27T02:28:48.983Z,17.23
2018-09-27T02:33:52.103Z,17.29
2018-09-27T02:38:55.156Z,17.34
2018-09-27T02:43:58.252Z,17.39
2018-09-27T02:49:01.505Z,17.44
2018-09-27T02:54:04.835Z,17.45
2018-09-27T02:59:08.060Z,17.49
2018-09-27T03:04:11.141Z,17.46
2018-09-27T03:09:14.216Z,17.46
2018-09-27T03:14:17.702Z,17.47
2018-09-27T03:19:21.109Z,17.51
2018-09-27T03:24:24.196Z,17.54
2018-09-27T03:29:27.263Z,17.49
2018-09-27T03:34:30.419Z,17.47
2018-09-27T03:39:33.561Z,17.45
2018-09-27T03:44:36.676Z,17.36
2018-09-27T03:49:39.743Z,17.24
2018-09-27T03:54:42.834Z,17.09
2018-09-27T03:59:45.934Z,16.95
2018-09-27T04:04:48.982Z,16.80
2018-09-27T04:09:52.038Z,16.67
2018-09-27T04:14:55.146Z,16.52
2018-09-27T04:19:58.580Z,16.40
2018-09-27T04:25:02.525Z,16.28
2018-09-27T04:30:06.508Z,16.25
2018-09-27T04:35:09.604Z,16.25
2018-09-27T04:40:12.680Z,16.25
2018-09-27T04:45:15.866Z,16.27
2018-09-27T04:50:18.922Z,16.28
2018-09-27T04:55:23.735Z,16.31
2018-09-27T05:06:04.241Z,16.27
2018-09-27T05:11:07.363Z,16.26
2018-09-27T05:16:10.525Z,16.22
2018-09-27T05:21:13.669Z,16.22
2018-09-27T05:26:16.744Z,16.23
2018-09-27T05:31:19.868Z,16.23
2018-09-27T05:36:24.015Z,16.25
2018-09-27T05:41:27.175Z,16.32
2018-09-27T05:46:30.242Z,16.53
2018-09-27T05:51:33.337Z,16.77
2018-09-27T05:56:36.498Z,16.96
2018-09-27T06:01:39.546Z,17.11
2018-09-27T06:06:43.048Z,17.26
2018-09-27T06:11:46.087Z,17.36
2018-09-27T06:16:49.162Z,17.45
2018-09-27T06:21:52.227Z,17.64
2018-09-27T06:26:55.307Z,17.78
2018-09-27T06:31:58.397Z,17.92
2018-09-27T06:37:01.470Z,18.06
2018-09-27T06:42:04.551Z,18.17
2018-09-27T06:47:07.690Z,18.29
2018-09-27T06:52:10.795Z,18.39
2018-09-27T06:57:13.873Z,18.38
2018-09-27T07:02:16.963Z,18.38
2018-09-27T07:07:20.062Z,18.62
2018-09-27T07:12:23.317Z,18.77
2018-09-27T07:17:26.224Z,18.86
2018-09-27T07:22:29.387Z,19.02
2018-09-27T07:27:32.433Z,19.14
2018-09-27T07:32:35.545Z,19.29
2018-09-27T07:37:38.621Z,19.51
2018-09-27T07:42:41.742Z,19.62
2018-09-27T07:47:44.845Z,19.77
2018-09-27T07:52:47.890Z,19.83
2018-09-27T07:57:50.936Z,19.94
2018-09-27T08:02:54.056Z,20.09
2018-09-27T08:07:57.086Z,20.29
2018-09-27T08:13:00.185Z,20.42
2018-09-27T08:18:03.290Z,20.39
2018-09-27T08:23:06.364Z,20.51
2018-09-27T08:28:09.438Z,20.66
2018-09-27T08:33:12.488Z,20.64
2018-09-27T08:38:15.569Z,20.72
2018-09-27T08:43:18.668Z,20.93
2018-09-27T08:48:21.784Z,21.11
2018-09-27T08:53:24.887Z,21.19
2018-09-27T08:58:28.006Z,21.35
2018-09-27T09:03:31.169Z,21.66
2018-09-27T09:08:34.180Z,21.70
2018-09-27T09:13:37.222Z,21.77
2018-09-27T09:18:40.295Z,21.77
2018-09-27T09:23:43.367Z,21.59
2018-09-27T09:28:46.406Z,21.51
2018-09-27T09:33:49.479Z,21.52
2018-09-27T09:38:52.557Z,21.50
2018-09-27T09:43:55.620Z,21.70
2018-09-27T09:48:58.676Z,21.86
2018-09-27T09:54:01.749Z,21.99
2018-09-27T09:59:04.936Z,22.09
2018-09-27T10:04:08.008Z,22.22
2018-09-27T10:09:11.440Z,22.45
2018-09-27T10:14:14.504Z,22.55
2018-09-27T10:19:17.586Z,22.76
2018-09-27T10:24:20.685Z,22.82
2018-09-27T10:29:23.730Z,22.88
2018-09-27T10:34:26.790Z,23.06
2018-09-27T10:39:29.900Z,23.04
2018-09-27T10:44:33.007Z,23.10
2018-09-27T10:49:36.063Z,23.06
2018-09-27T10:54:39.143Z,23.16
2018-09-27T10:59:42.215Z,23.27
2018-09-27T11:04:46.822Z,23.45
2018-09-27T11:09:51.188Z,23.38
2018-09-27T11:14:56.571Z,23.63
2018-09-27T11:20:00.144Z,23.82
2018-09-27T11:25:04.248Z,23.89
2018-09-27T11:30:13.653Z,24.07
2018-09-27T11:35:17.866Z,24.14
2018-09-27T11:40:21.900Z,24.24
2018-09-27T11:45:25.968Z,24.25
2018-09-27T11:50:30.222Z,24.30
2018-09-27T11:55:33.386Z,24.41
2018-09-27T12:00:37.595Z,24.47
2018-09-27T12:05:41.309Z,24.60
2018-09-27T12:10:45.054Z,24.74
2018-09-27T12:15:49.017Z,24.80
2018-09-27T12:20:52.783Z,24.88
2018-09-27T12:25:55.965Z,24.90
2018-09-27T12:30:59.108Z,24.99
2018-09-27T12:36:02.235Z,25.05
2018-09-27T12:41:05.343Z,25.14
2018-09-27T12:46:08.835Z,25.23
2018-09-27T12:51:11.883Z,25.22
2018-09-27T12:56:14.940Z,25.35
2018-09-27T13:01:18.087Z,25.32
2018-09-27T13:06:21.148Z,25.42
2018-09-27T13:11:24.205Z,25.40
2018-09-27T13:22:12.692Z,25.45
2018-09-27T13:27:15.789Z,25.50
2018-09-27T13:32:18.854Z,25.50
2018-09-27T13:37:21.916Z,25.53
2018-09-27T13:42:25.072Z,25.69
2018-09-27T13:47:29.076Z,25.70
2018-09-27T13:52:32.146Z,25.73
2018-09-27T13:57:35.193Z,25.73
2018-09-27T14:02:38.236Z,25.78
2018-09-27T14:07:41.327Z,25.83
2018-09-27T14:12:44.421Z,25.78
2018-09-27T14:17:47.512Z,25.82
2018-09-27T14:22:50.584Z,25.71
2018-09-27T14:27:53.672Z,25.69
2018-09-27T14:32:56.752Z,25.71
2018-09-27T14:37:59.844Z,25.65
2018-09-27T14:43:02.929Z,25.74
2018-09-27T14:48:06.050Z,25.76
2018-09-27T14:53:09.160Z,25.78
2018-09-27T14:58:12.337Z,25.67
2018-09-27T15:03:15.428Z,25.79
2018-09-27T15:08:18.496Z,25.80
2018-09-27T15:13:21.800Z,25.71
2018-09-27T15:18:24.876Z,25.73
2018-09-27T15:23:28.156Z,25.84
2018-09-27T15:28:31.220Z,25.71
2018-09-27T15:33:34.499Z,25.67
2018-09-27T15:38:37.587Z,25.67
2018-09-27T15:43:40.703Z,25.63
2018-09-27T15:48:43.828Z,25.49
2018-09-27T15:53:46.951Z,25.41
2018-09-27T15:58:50.032Z,25.29
2018-09-27T16:03:53.137Z,25.25
2018-09-27T16:08:56.255Z,25.26
2018-09-27T16:13:59.345Z,25.13
2018-09-27T16:19:02.502Z,24.99
2018-09-27T16:24:05.684Z,24.73
2018-09-27T16:29:09.208Z,24.52
2018-09-27T16:34:12.301Z,24.29
2018-09-27T16:39:15.417Z,24.12
2018-09-27T16:44:18.589Z,23.95
2018-09-27T16:49:21.787Z,23.69
2018-09-27T16:54:24.872Z,23.39
2018-09-27T16:59:40.595Z,22.98
2018-09-27T17:04:49.192Z,22.52
2018-09-27T17:15:37.672Z,21.97
2018-09-27T17:20:40.895Z,21.79
2018-09-27T17:25:43.996Z,21.62
2018-09-27T17:30:47.139Z,21.40
2018-09-27T17:35:50.188Z,21.23
2018-09-27T17:40:53.295Z,21.05
2018-09-27T17:45:56.432Z,20.90
2018-09-27T17:50:59.491Z,20.71
2018-09-27T17:56:02.660Z,20.54
2018-09-27T18:01:06.545Z,20.41
2018-09-27T18:06:10.055Z,20.24
2018-09-27T18:11:14.411Z,19.98
2018-09-27T18:16:17.677Z,19.87
2018-09-27T18:21:21.625Z,19.71
2018-09-27T18:26:24.755Z,19.50
2018-09-27T18:31:28.468Z,19.22
2018-09-27T18:36:31.634Z,18.99
2018-09-27T18:41:34.846Z,18.83
2018-09-27T18:46:46.516Z,18.65
2018-09-27T18:51:57.113Z,18.51
2018-09-27T18:57:05.809Z,18.40
2018-09-27T19:02:10.733Z,18.26
2018-09-27T19:07:13.953Z,18.13
2018-09-27T19:12:17.094Z,17.97
2018-09-27T19:17:20.208Z,17.83
2018-09-27T19:22:23.335Z,17.76
2018-09-27T19:27:26.521Z,17.64
2018-09-27T19:32:33.759Z,17.58
2018-09-27T19:37:37.015Z,17.49
2018-09-27T19:42:41.108Z,17.40
2018-09-27T19:47:44.201Z,17.36
2018-09-27T19:52:47.328Z,17.34
2018-09-27T19:57:50.697Z,17.28
2018-09-27T20:02:53.958Z,17.24
2018-09-27T20:07:57.052Z,17.18
2018-09-27T20:13:00.283Z,17.10
2018-09-27T20:18:03.388Z,17.06
2018-09-27T20:23:06.548Z,16.99
2018-09-27T20:28:09.669Z,16.88
2018-09-27T20:33:12.683Z,16.74
2018-09-27T20:38:15.751Z,16.61
2018-09-27T20:43:18.844Z,16.51
2018-09-27T20:48:21.917Z,16.45
2018-09-27T20:53:24.968Z,16.38
2018-09-27T20:58:28.118Z,16.22
2018-09-27T21:03:31.146Z,16.02
2018-09-27T21:08:34.196Z,15.76
2018-09-27T21:13:37.257Z,15.63
2018-09-27T21:18:40.336Z,15.66
2018-09-27T21:23:43.377Z,15.66
2018-09-27T21:28:46.455Z,15.58
2018-09-27T21:33:49.516Z,15.45
2018-09-27T21:38:52.588Z,15.40
2018-09-27T21:43:55.644Z,15.42
2018-09-27T21:48:58.720Z,15.44
2018-09-27T21:54:01.807Z,15.47
2018-09-27T22:04:49.506Z,15.21
2018-09-27T22:09:54.020Z,15.09
2018-09-27T22:14:57.107Z,14.98
2018-09-27T22:20:00.157Z,14.92
2018-09-27T22:25:03.264Z,14.86
2018-09-27T22:30:07.219Z,14.81
2018-09-27T22:35:10.311Z,14.67
2018-09-27T22:40:13.441Z,14.71
2018-09-27T22:45:16.551Z,14.71
2018-09-27T22:50:19.681Z,14.59
2018-09-27T22:55:22.768Z,14.52
2018-09-27T23:00:25.856Z,14.45
2018-09-27T23:05:29.095Z,14.37
2018-09-27T23:10:51.840Z,14.34
2018-09-27T23:21:39.550Z,14.37
2018-09-27T23:26:42.695Z,14.36
2018-09-27T23:31:45.887Z,14.31
2018-09-27T23:36:48.967Z,14.34
2018-09-27T23:41:52.031Z,14.30
2018-09-27T23:46:55.100Z,14.17
2018-09-27T23:51:58.236Z,14.12
2018-09-27T23:57:01.297Z,14.05
